createdAt,value
2023-02-09T01:51:18.899Z,76.96
2023-02-09T01:52:12.544Z,77.06
2023-02-09T01:53:11.220Z,76.96
2023-02-09T01:54:11.124Z,76.96
2023-02-09T01:55:11.173Z,77.25
2023-02-09T01:56:11.077Z,77.06
2023-02-09T01:57:11.073Z,77.06
2023-02-09T01:58:11.134Z,77.06
2023-02-09T01:59:11.038Z,77.34
2023-02-09T02:00:10.993Z,76.87
2023-02-09T02:01:10.998Z,76.96
2023-02-09T02:02:11.024Z,77.06
2023-02-09T02:03:11.025Z,77.44
2023-02-09T02:04:10.950Z,77.62
2023-02-09T02:05:10.880Z,77.44
2023-02-09T02:06:10.868Z,77.25
2023-02-09T02:07:10.827Z,77.53
2023-02-09T02:08:10.804Z,77.44
2023-02-09T02:09:10.790Z,77.44
2023-02-09T02:10:10.762Z,77.06
2023-02-09T02:11:11.172Z,77.25
2023-02-09T02:12:10.721Z,77.15
2023-02-09T02:13:10.719Z,77.15
2023-02-09T02:14:10.690Z,77.06
2023-02-09T02:15:10.647Z,77.25
2023-02-09T02:16:10.701Z,77.34
2023-02-09T02:17:10.601Z,77.62
2023-02-09T02:18:10.591Z,77.53
2023-02-09T02:19:10.555Z,77.44
2023-02-09T02:20:10.527Z,77.44
2023-02-09T02:21:10.511Z,77.25
2023-02-09T02:22:10.482Z,77.53
2023-02-09T02:23:10.479Z,77.53
2023-02-09T02:24:10.435Z,77.25
2023-02-09T02:25:10.412Z,77.34
2023-02-09T02:26:10.397Z,77.72
2023-02-09T02:27:10.806Z,77.62
2023-02-09T02:28:11.265Z,77.53
2023-02-09T02:29:10.402Z,77.62
2023-02-09T02:30:10.307Z,77.72
2023-02-09T02:31:10.391Z,77.53
2023-02-09T02:32:10.256Z,77.44
2023-02-09T02:33:10.237Z,77.53
2023-02-09T02:34:10.213Z,77.44
2023-02-09T02:35:10.187Z,77.44
2023-02-09T02:36:10.169Z,77.62
2023-02-09T02:37:10.140Z,77.34
2023-02-09T02:38:10.121Z,77.53
2023-02-09T02:39:10.102Z,77.44
2023-02-09T02:40:10.080Z,77.53
2023-02-09T02:41:11.091Z,77.53
2023-02-09T02:42:10.035Z,77.53
2023-02-09T02:43:10.012Z,77.72
2023-02-09T02:44:09.990Z,77.62
2023-02-09T02:45:09.962Z,77.53
2023-02-09T02:46:10.027Z,77.53
2023-02-09T02:47:09.918Z,77.53
2023-02-09T02:48:09.899Z,77.44
2023-02-09T02:49:09.876Z,77.47
2023-02-09T02:50:09.858Z,77.56
2023-02-09T02:51:09.865Z,77.47
2023-02-09T02:52:09.844Z,77.56
2023-02-09T02:53:09.793Z,77.19
2023-02-09T02:54:09.765Z,77.47
2023-02-09T02:55:09.747Z,77.56
2023-02-09T02:56:09.725Z,77.47
2023-02-09T02:57:09.698Z,76.81
2023-02-09T02:58:09.675Z,77.56
2023-02-09T02:59:09.660Z,77.37
2023-02-09T03:00:09.641Z,77.66
2023-02-09T03:01:09.654Z,77.66
2023-02-09T03:02:09.585Z,77.66
2023-02-09T03:03:09.565Z,77.56
2023-02-09T03:04:09.550Z,77.66
2023-02-09T03:05:09.624Z,77.62
2023-02-09T03:06:09.496Z,77.44
2023-02-09T03:07:09.478Z,77.53
2023-02-09T03:08:09.451Z,77.72
2023-02-09T03:09:09.428Z,77.72
2023-02-09T03:10:09.413Z,77.81
2023-02-09T03:11:09.400Z,77.91
2023-02-09T03:12:09.362Z,77.81
2023-02-09T03:13:09.339Z,77.81
2023-02-09T03:14:09.320Z,78.19
2023-02-09T03:15:09.321Z,78.38
2023-02-09T03:16:09.306Z,78.38
2023-02-09T03:17:09.254Z,78.00
2023-02-09T03:18:10.171Z,78.19
2023-02-09T03:19:09.206Z,78.19
2023-02-09T03:20:09.201Z,78.19
2023-02-09T03:21:09.160Z,78.09
2023-02-09T03:22:09.152Z,78.09
2023-02-09T03:23:09.119Z,78.28
2023-02-09T03:24:09.095Z,78.19
2023-02-09T03:25:09.070Z,78.00
2023-02-09T03:26:09.050Z,78.28
2023-02-09T03:27:09.025Z,78.28
2023-02-09T03:28:09.034Z,78.28
2023-02-09T03:29:10.005Z,78.00
2023-02-09T03:30:08.961Z,78.38
2023-02-09T03:31:09.027Z,78.19
2023-02-09T03:32:08.914Z,78.19
2023-02-09T03:33:10.628Z,78.19
2023-02-09T03:34:08.871Z,78.56
2023-02-09T03:35:08.844Z,78.00
2023-02-09T03:36:08.831Z,78.09
2023-02-09T03:37:08.800Z,78.00
2023-02-09T03:38:08.783Z,78.19
2023-02-09T03:39:08.756Z,78.09
2023-02-09T03:40:08.732Z,78.09
2023-02-09T03:41:08.707Z,78.09
2023-02-09T03:42:08.687Z,78.19
2023-02-09T03:43:08.667Z,78.66
2023-02-09T03:44:08.643Z,78.09
2023-02-09T03:45:08.616Z,78.19
2023-02-09T03:46:08.660Z,78.09
2023-02-09T03:47:08.576Z,78.09
2023-02-09T03:48:08.563Z,78.28
2023-02-09T03:49:08.529Z,78.19
2023-02-09T03:50:08.513Z,78.75
2023-02-09T03:51:08.482Z,78.15
2023-02-09T03:52:08.463Z,78.19
2023-02-09T03:53:08.458Z,78.34
2023-02-09T03:54:08.419Z,78.43
2023-02-09T03:55:08.393Z,78.66
2023-02-09T03:56:08.370Z,78.66
2023-02-09T03:57:08.345Z,78.52
2023-02-09T03:58:08.331Z,78.66
2023-02-09T03:59:08.347Z,78.43
2023-02-09T04:00:08.337Z,78.43
2023-02-09T04:01:08.369Z,78.43
2023-02-09T04:02:08.283Z,78.62
2023-02-09T04:03:08.213Z,78.24
2023-02-09T04:04:08.186Z,78.52
2023-02-09T04:05:08.180Z,78.24
2023-02-09T04:06:08.146Z,78.62
2023-02-09T04:07:08.123Z,78.43
2023-02-09T04:08:08.095Z,78.34
2023-02-09T04:09:08.088Z,78.43
2023-02-09T04:10:08.048Z,78.34
2023-02-09T04:11:08.028Z,78.15
2023-02-09T04:12:08.003Z,78.34
2023-02-09T04:13:07.983Z,78.15
2023-02-09T04:14:07.957Z,78.34
2023-02-09T04:15:07.936Z,78.34
2023-02-09T04:16:07.954Z,78.05
2023-02-09T04:17:07.894Z,78.15
2023-02-09T04:18:07.868Z,78.34
2023-02-09T04:19:07.842Z,78.34
2023-02-09T04:20:07.835Z,78.43
2023-02-09T04:21:07.796Z,78.71
2023-02-09T04:22:07.779Z,78.52
2023-02-09T04:23:07.762Z,78.62
2023-02-09T04:24:07.736Z,78.24
2023-02-09T04:25:07.709Z,78.43
2023-02-09T04:26:07.701Z,78.15
2023-02-09T04:27:07.662Z,77.96
2023-02-09T04:28:07.667Z,78.05
2023-02-09T04:29:07.622Z,78.43
2023-02-09T04:30:07.595Z,78.52
2023-02-09T04:31:07.682Z,78.52
2023-02-09T04:32:07.668Z,78.24
2023-02-09T04:33:07.523Z,78.24
2023-02-09T04:34:07.503Z,78.15
2023-02-09T04:35:07.475Z,78.05
2023-02-09T04:36:07.458Z,78.24
2023-02-09T04:37:08.039Z,78.71
2023-02-09T04:38:07.414Z,78.43
2023-02-09T04:39:07.383Z,78.52
2023-02-09T04:40:07.861Z,78.24
2023-02-09T04:41:07.340Z,78.71
2023-02-09T04:42:07.320Z,78.71
2023-02-09T04:43:07.314Z,78.71
2023-02-09T04:44:07.285Z,78.62
2023-02-09T04:45:07.261Z,78.52
2023-02-09T04:46:07.298Z,78.62
2023-02-09T04:47:07.211Z,78.52
2023-02-09T04:48:07.183Z,78.71
2023-02-09T04:49:07.160Z,78.52
2023-02-09T04:50:07.145Z,78.71
2023-02-09T04:51:07.112Z,78.71
2023-02-09T04:52:07.096Z,78.71
2023-02-09T04:53:07.061Z,78.52
2023-02-09T04:54:07.053Z,78.81
2023-02-09T04:55:07.038Z,78.62
2023-02-09T04:56:07.024Z,78.43
2023-02-09T04:57:07.045Z,78.52
2023-02-09T04:58:06.953Z,78.66
2023-02-09T04:59:06.942Z,78.34
2023-02-09T05:00:06.921Z,78.52
2023-02-09T05:01:06.939Z,78.43
2023-02-09T05:02:06.874Z,78.52
2023-02-09T05:03:06.899Z,78.62
2023-02-09T05:04:06.816Z,78.24
2023-02-09T05:05:06.806Z,78.43
2023-02-09T05:06:06.782Z,78.81
2023-02-09T05:07:06.752Z,78.52
2023-02-09T05:08:06.729Z,78.24
2023-02-09T05:09:06.698Z,78.34
2023-02-09T05:10:06.679Z,78.34
2023-02-09T05:11:06.682Z,78.34
2023-02-09T05:12:06.636Z,78.52
2023-02-09T05:13:06.613Z,78.52
2023-02-09T05:14:06.592Z,78.52
2023-02-09T05:15:06.569Z,78.34
2023-02-09T05:16:06.607Z,78.90
2023-02-09T05:17:06.538Z,78.90
2023-02-09T05:18:06.505Z,79.00
2023-02-09T05:19:06.484Z,78.81
2023-02-09T05:20:06.456Z,78.90
2023-02-09T05:21:06.435Z,78.81
2023-02-09T05:22:06.409Z,79.19
2023-02-09T05:23:06.383Z,79.28
2023-02-09T05:24:06.367Z,79.37
2023-02-09T05:25:06.339Z,79.19
2023-02-09T05:26:06.322Z,79.37
2023-02-09T05:27:06.291Z,79.09
2023-02-09T05:28:06.358Z,78.71
2023-02-09T05:29:06.248Z,78.34
2023-02-09T05:30:06.219Z,78.43
2023-02-09T05:31:06.314Z,78.52
2023-02-09T05:32:06.285Z,78.34
2023-02-09T05:33:06.205Z,78.43
2023-02-09T05:34:06.133Z,78.90
2023-02-09T05:35:08.342Z,78.90
2023-02-09T05:36:06.102Z,78.81
2023-02-09T05:37:06.061Z,78.81
2023-02-09T05:38:06.114Z,78.43
2023-02-09T05:39:06.022Z,78.52
2023-02-09T05:40:05.996Z,78.43
2023-02-09T05:41:05.975Z,78.52
2023-02-09T05:42:05.941Z,78.52
2023-02-09T05:43:05.921Z,78.52
2023-02-09T05:44:05.950Z,78.52
2023-02-09T05:45:05.893Z,78.81
2023-02-09T05:46:08.301Z,78.71
2023-02-09T05:47:05.834Z,79.03
2023-02-09T05:48:05.812Z,78.90
2023-02-09T05:49:05.787Z,79.00
2023-02-09T05:50:05.763Z,78.43
2023-02-09T05:51:05.742Z,78.34
2023-02-09T05:52:05.718Z,78.43
2023-02-09T05:53:05.711Z,78.34
2023-02-09T05:54:05.708Z,78.90
2023-02-09T05:55:05.645Z,79.00
2023-02-09T05:56:05.623Z,79.09
2023-02-09T05:57:05.606Z,79.28
2023-02-09T05:58:05.600Z,79.00
2023-02-09T05:59:05.551Z,79.00
2023-02-09T06:00:05.536Z,79.56
2023-02-09T06:01:05.503Z,79.28
2023-02-09T06:02:05.506Z,79.19
2023-02-09T06:03:05.466Z,79.32
2023-02-09T06:04:05.556Z,79.50
2023-02-09T06:05:05.416Z,79.60
2023-02-09T06:06:05.389Z,79.41
2023-02-09T06:07:05.366Z,79.60
2023-02-09T06:08:05.344Z,78.85
2023-02-09T06:09:05.327Z,78.85
2023-02-09T06:10:05.303Z,79.13
2023-02-09T06:11:05.267Z,79.03
2023-02-09T06:12:05.254Z,78.85
2023-02-09T06:13:05.232Z,78.38
2023-02-09T06:14:05.204Z,78.56
2023-02-09T06:15:05.186Z,78.47
2023-02-09T06:16:05.189Z,78.28
2023-02-09T06:17:05.133Z,78.56
2023-02-09T06:18:05.109Z,78.75
2023-02-09T06:19:05.088Z,78.85
2023-02-09T06:20:05.061Z,78.75
2023-02-09T06:21:05.038Z,78.66
2023-02-09T06:22:05.017Z,78.47
2023-02-09T06:23:05.002Z,78.56
2023-02-09T06:24:04.981Z,79.13
2023-02-09T06:25:04.965Z,79.03
2023-02-09T06:26:04.924Z,79.22
2023-02-09T06:27:04.899Z,79.32
2023-02-09T06:28:04.942Z,79.50
2023-02-09T06:29:04.878Z,79.13
2023-02-09T06:30:04.835Z,79.41
2023-02-09T06:31:04.903Z,79.32
2023-02-09T06:32:04.907Z,79.60
2023-02-09T06:33:04.767Z,79.79
2023-02-09T06:34:04.744Z,79.60
2023-02-09T06:35:04.798Z,79.50
2023-02-09T06:36:04.699Z,79.69
2023-02-09T06:37:04.679Z,79.69
2023-02-09T06:38:04.668Z,79.69
2023-02-09T06:39:04.639Z,79.60
2023-02-09T06:40:04.612Z,79.79
2023-02-09T06:41:04.594Z,79.32
2023-02-09T06:42:04.578Z,79.79
2023-02-09T06:43:04.539Z,79.50
2023-02-09T06:44:04.514Z,79.98
2023-02-09T06:45:04.494Z,79.22
2023-02-09T06:46:04.527Z,79.69
2023-02-09T06:47:04.477Z,79.79
2023-02-09T06:48:04.430Z,79.69
2023-02-09T06:49:04.405Z,79.69
2023-02-09T06:50:04.602Z,79.50
2023-02-09T06:51:04.361Z,79.50
2023-02-09T06:52:04.336Z,79.60
2023-02-09T06:53:04.331Z,79.69
2023-02-09T06:54:04.290Z,79.79
2023-02-09T06:55:04.280Z,79.50
2023-02-09T06:56:04.245Z,79.50
2023-02-09T06:57:04.224Z,79.88
2023-02-09T06:58:04.213Z,79.60
2023-02-09T06:59:04.194Z,79.69
2023-02-09T07:00:04.169Z,79.60
2023-02-09T07:01:04.131Z,79.69
2023-02-09T07:02:04.174Z,79.69
2023-02-09T07:03:04.133Z,79.69
2023-02-09T07:04:04.061Z,79.50
2023-02-09T07:05:04.043Z,79.69
2023-02-09T07:06:04.020Z,79.60
2023-02-09T07:07:03.995Z,79.41
2023-02-09T07:08:03.991Z,79.69
2023-02-09T07:09:03.951Z,79.22
2023-02-09T07:10:03.929Z,79.41
2023-02-09T07:11:03.907Z,79.13
2023-02-09T07:12:03.882Z,79.13
2023-02-09T07:13:03.858Z,79.32
2023-02-09T07:14:03.836Z,79.41
2023-02-09T07:15:03.813Z,79.32
2023-02-09T07:16:03.865Z,79.13
2023-02-09T07:17:03.775Z,79.13
2023-02-09T07:18:03.741Z,79.13
2023-02-09T07:19:03.748Z,79.13
2023-02-09T07:20:03.713Z,79.41
2023-02-09T07:21:03.723Z,78.94
2023-02-09T07:22:03.659Z,79.32
2023-02-09T07:23:03.683Z,79.22
2023-02-09T07:24:03.649Z,79.46
2023-02-09T07:25:03.591Z,79.64
2023-02-09T07:26:03.578Z,79.46
2023-02-09T07:27:03.573Z,78.89
2023-02-09T07:28:03.567Z,79.08
2023-02-09T07:29:03.504Z,79.17
2023-02-09T07:30:03.492Z,79.08
2023-02-09T07:31:03.623Z,78.98
2023-02-09T07:32:03.454Z,79.08
2023-02-09T07:33:03.419Z,78.89
2023-02-09T07:34:03.406Z,79.64
2023-02-09T07:35:03.366Z,79.46
2023-02-09T07:36:03.339Z,79.64
2023-02-09T07:37:03.317Z,80.40
2023-02-09T07:38:03.297Z,79.87
2023-02-09T07:39:03.274Z,80.06
2023-02-09T07:40:03.255Z,79.78
2023-02-09T07:41:03.226Z,79.11
2023-02-09T07:42:03.218Z,78.45
2023-02-09T07:43:03.210Z,78.36
2023-02-09T07:44:03.197Z,78.12
2023-02-09T07:45:03.138Z,78.40
2023-02-09T07:46:03.129Z,78.40
2023-02-09T07:47:03.125Z,78.12
2023-02-09T07:48:03.101Z,78.87
2023-02-09T07:49:03.069Z,79.53
2023-02-09T07:50:03.072Z,79.82
2023-02-09T07:51:03.022Z,80.38
2023-02-09T07:52:02.992Z,80.62
2023-02-09T07:53:02.969Z,80.52
2023-02-09T07:54:02.953Z,80.08
2023-02-09T07:55:02.925Z,78.33
2023-02-09T07:56:02.902Z,76.72
2023-02-09T07:57:02.881Z,75.40
2023-02-09T07:58:02.865Z,74.45
2023-02-09T07:59:02.877Z,74.36
2023-02-09T08:00:02.823Z,74.60
2023-02-09T08:01:02.803Z,75.26
2023-02-09T08:02:02.832Z,75.93
2023-02-09T08:03:02.763Z,76.40
2023-02-09T08:04:02.737Z,76.87
2023-02-09T08:05:02.789Z,77.72
2023-02-09T08:06:02.700Z,78.10
2023-02-09T08:07:02.677Z,78.01
2023-02-09T08:08:05.005Z,78.58
2023-02-09T08:09:02.631Z,77.91
2023-02-09T08:10:02.618Z,78.10
2023-02-09T08:11:02.595Z,78.58
2023-02-09T08:12:02.684Z,77.91
2023-02-09T08:13:02.558Z,78.10
2023-02-09T08:14:02.535Z,77.82
2023-02-09T08:15:02.528Z,77.44
2023-02-09T08:16:02.520Z,77.53
2023-02-09T08:17:02.484Z,77.58
2023-02-09T08:18:02.456Z,77.67
2023-02-09T08:19:02.439Z,77.48
2023-02-09T08:20:02.429Z,77.39
2023-02-09T08:21:02.398Z,77.67
2023-02-09T08:22:02.388Z,77.20
2023-02-09T08:23:02.363Z,77.20
2023-02-09T08:24:02.350Z,77.29
2023-02-09T08:25:02.342Z,76.72
2023-02-09T08:26:02.306Z,76.53
2023-02-09T08:27:02.333Z,76.82
2023-02-09T08:28:02.353Z,76.72
2023-02-09T08:29:02.253Z,76.95
2023-02-09T08:30:02.229Z,76.86
2023-02-09T08:31:02.297Z,76.76
2023-02-09T08:32:02.273Z,76.86
2023-02-09T08:33:02.173Z,76.86
2023-02-09T08:34:02.148Z,77.08
2023-02-09T08:35:02.140Z,77.75
2023-02-09T08:36:02.113Z,78.41
2023-02-09T08:37:02.102Z,79.11
2023-02-09T08:38:02.078Z,79.77
2023-02-09T08:39:02.061Z,80.86
2023-02-09T08:40:02.054Z,81.04
2023-02-09T08:41:02.021Z,79.88
2023-02-09T08:42:02.033Z,76.48
2023-02-09T08:43:02.052Z,71.96
2023-02-09T08:44:01.974Z,66.72
2023-02-09T08:45:01.950Z,61.98
2023-02-09T08:46:02.037Z,58.76
2023-02-09T08:47:02.052Z,58.51
2023-02-09T08:48:01.911Z,59.51
2023-02-09T08:49:01.881Z,61.76
2023-02-09T08:50:01.874Z,64.47
2023-02-09T08:51:01.853Z,66.56
2023-02-09T08:52:01.842Z,68.71
2023-02-09T08:53:01.823Z,70.58
2023-02-09T08:54:01.813Z,72.86
2023-02-09T08:55:01.881Z,75.34
2023-02-09T08:56:01.771Z,77.15
2023-02-09T08:57:01.758Z,78.04
2023-02-09T08:58:01.744Z,78.75
2023-02-09T08:59:01.731Z,77.83
2023-02-09T09:00:01.936Z,75.43
2023-02-09T09:01:01.775Z,72.39
2023-02-09T09:02:01.693Z,66.86
2023-02-09T09:03:01.674Z,63.10
2023-02-09T09:04:01.764Z,61.44
2023-02-09T09:05:01.653Z,61.69
2023-02-09T09:06:01.631Z,62.90
2023-02-09T09:07:01.639Z,64.78
2023-02-09T09:08:01.603Z,66.85
2023-02-09T09:09:01.600Z,68.29
2023-02-09T09:10:01.662Z,69.40
2023-02-09T09:11:01.564Z,71.02
2023-02-09T09:12:01.584Z,71.78
2023-02-09T09:13:01.550Z,73.44
2023-02-09T09:14:01.580Z,73.92
2023-02-09T09:15:01.512Z,75.26
2023-02-09T09:16:03.167Z,75.20
2023-02-09T09:17:01.548Z,74.36
2023-02-09T09:18:01.494Z,70.67
2023-02-09T09:19:01.480Z,65.91
2023-02-09T09:20:01.458Z,60.00
2023-02-09T09:21:01.439Z,55.56
2023-02-09T09:22:01.430Z,52.57
2023-02-09T09:23:01.431Z,50.81
2023-02-09T09:24:01.418Z,51.43
2023-02-09T09:25:01.395Z,53.09
2023-02-09T09:26:01.389Z,56.30
2023-02-09T09:27:01.376Z,58.36
2023-02-09T09:28:01.405Z,61.02
2023-02-09T09:29:01.354Z,62.87
2023-02-09T09:30:01.345Z,65.62
2023-02-09T09:31:01.376Z,67.88
2023-02-09T09:32:01.353Z,70.05
2023-02-09T09:33:01.389Z,72.34
2023-02-09T09:34:01.302Z,73.44
2023-02-09T09:35:01.299Z,73.13
2023-02-09T09:36:01.278Z,71.00
2023-02-09T09:37:01.291Z,65.72
2023-02-09T09:38:01.259Z,59.34
2023-02-09T09:39:01.415Z,54.38
2023-02-09T09:40:01.253Z,49.46
2023-02-09T09:41:01.235Z,45.52
2023-02-09T09:42:01.227Z,44.09
2023-02-09T09:43:01.218Z,44.04
2023-02-09T09:44:01.218Z,45.92
2023-02-09T09:45:01.198Z,48.42
2023-02-09T09:46:01.256Z,51.42
2023-02-09T09:47:01.360Z,54.53
2023-02-09T09:48:01.168Z,58.04
2023-02-09T09:49:01.161Z,60.49
2023-02-09T09:50:01.245Z,62.96
2023-02-09T09:51:01.147Z,65.94
2023-02-09T09:52:01.138Z,67.35
2023-02-09T09:53:01.130Z,68.06
2023-02-09T09:54:01.122Z,68.04
2023-02-09T09:55:01.114Z,65.47
2023-02-09T09:56:01.100Z,60.59
2023-02-09T09:57:01.102Z,55.89
2023-02-09T09:58:01.093Z,50.68
2023-02-09T09:59:01.086Z,45.75
2023-02-09T10:00:01.075Z,42.48
2023-02-09T10:01:01.098Z,41.28
2023-02-09T10:02:01.053Z,42.30
2023-02-09T10:03:01.049Z,44.14
2023-02-09T10:04:01.043Z,46.62
2023-02-09T10:05:01.033Z,50.18
2023-02-09T10:06:01.022Z,53.11
2023-02-09T10:07:01.035Z,55.76
2023-02-09T10:08:01.014Z,57.69
2023-02-09T10:09:01.002Z,59.85
2023-02-09T10:10:00.994Z,62.32
2023-02-09T10:11:00.986Z,64.31
2023-02-09T10:12:00.979Z,65.75
2023-02-09T10:13:00.974Z,66.23
2023-02-09T10:14:00.961Z,66.49
2023-02-09T10:15:00.958Z,64.92
2023-02-09T10:16:00.948Z,62.05
2023-02-09T10:17:00.981Z,57.56
2023-02-09T10:18:00.944Z,52.18
2023-02-09T10:19:00.933Z,47.69
2023-02-09T10:20:00.920Z,45.75
2023-02-09T10:21:00.922Z,46.72
2023-02-09T10:22:00.923Z,48.49
2023-02-09T10:23:00.901Z,50.93
2023-02-09T10:24:00.895Z,53.39
2023-02-09T10:25:00.883Z,55.44
2023-02-09T10:26:00.880Z,57.72
2023-02-09T10:27:00.873Z,59.14
2023-02-09T10:28:00.881Z,60.30
2023-02-09T10:29:00.857Z,60.87
2023-02-09T10:30:00.851Z,61.61
2023-02-09T10:31:00.915Z,63.15
2023-02-09T10:32:00.917Z,63.15
2023-02-09T10:33:00.826Z,63.64
2023-02-09T10:34:00.822Z,63.47
2023-02-09T10:35:00.828Z,62.86
2023-02-09T10:36:00.815Z,59.70
2023-02-09T10:37:00.801Z,55.98
2023-02-09T10:38:00.811Z,51.26
2023-02-09T10:39:00.791Z,48.00
2023-02-09T10:40:00.784Z,46.64
2023-02-09T10:41:00.812Z,47.45
2023-02-09T10:42:00.773Z,49.41
2023-02-09T10:43:00.794Z,51.47
2023-02-09T10:44:00.792Z,52.97
2023-02-09T10:45:00.785Z,55.35
2023-02-09T10:46:00.813Z,56.46
2023-02-09T10:47:00.751Z,57.62
2023-02-09T10:48:00.748Z,58.17
2023-02-09T10:49:00.732Z,58.91
2023-02-09T10:50:00.759Z,59.20
2023-02-09T10:51:00.732Z,59.97
2023-02-09T10:52:00.719Z,60.64
2023-02-09T10:53:00.707Z,60.16
2023-02-09T10:54:00.706Z,59.23
2023-02-09T10:55:00.702Z,58.32
2023-02-09T10:56:00.697Z,55.41
2023-02-09T10:57:02.138Z,51.96
2023-02-09T10:58:00.684Z,48.54
2023-02-09T10:59:00.681Z,46.89
2023-02-09T11:00:00.679Z,47.33
2023-02-09T11:01:00.670Z,48.32
2023-02-09T11:02:00.663Z,50.67
2023-02-09T11:03:00.658Z,52.75
2023-02-09T11:04:00.782Z,54.62
2023-02-09T11:05:00.650Z,55.34
2023-02-09T11:06:00.667Z,56.47
2023-02-09T11:07:00.662Z,57.34
2023-02-09T11:08:00.642Z,57.14
2023-02-09T11:09:00.637Z,57.92
2023-02-09T11:10:00.627Z,59.00
2023-02-09T11:11:00.633Z,59.39
2023-02-09T11:12:00.625Z,58.84
2023-02-09T11:13:00.620Z,57.90
2023-02-09T11:14:00.627Z,56.83
2023-02-09T11:15:00.608Z,53.55
2023-02-09T11:16:00.615Z,49.61
2023-02-09T11:17:00.602Z,46.55
2023-02-09T11:18:00.587Z,45.82
2023-02-09T11:19:00.583Z,46.31
2023-02-09T11:20:00.578Z,48.52
2023-02-09T11:21:00.570Z,50.57
2023-02-09T11:22:00.570Z,52.93
2023-02-09T11:23:00.574Z,54.09
2023-02-09T11:24:00.576Z,54.93
2023-02-09T11:25:00.559Z,55.22
2023-02-09T11:26:00.564Z,55.51
2023-02-09T11:27:00.641Z,55.89
2023-02-09T11:28:00.569Z,56.44
2023-02-09T11:29:00.532Z,57.12
2023-02-09T11:30:00.551Z,57.69
2023-02-09T11:31:00.625Z,57.53
2023-02-09T11:32:00.580Z,56.52
2023-02-09T11:33:00.522Z,53.93
2023-02-09T11:34:00.518Z,50.67
2023-02-09T11:35:00.503Z,46.75
2023-02-09T11:36:00.503Z,45.68
2023-02-09T11:37:00.490Z,46.12
2023-02-09T11:38:00.489Z,46.84
2023-02-09T11:39:00.495Z,48.74
2023-02-09T11:40:00.514Z,50.55
2023-02-09T11:41:00.483Z,51.59
2023-02-09T11:42:00.486Z,52.33
2023-02-09T11:43:00.469Z,52.69
2023-02-09T11:44:00.460Z,53.73
2023-02-09T11:45:00.455Z,54.38
2023-02-09T11:46:00.492Z,55.34
2023-02-09T11:47:00.442Z,55.92
2023-02-09T11:48:00.440Z,56.59
2023-02-09T11:49:00.447Z,56.84
2023-02-09T11:50:00.439Z,55.26
2023-02-09T11:51:00.437Z,52.29
2023-02-09T11:52:00.420Z,48.30
2023-02-09T11:53:00.421Z,46.14
2023-02-09T11:54:00.412Z,45.14
2023-02-09T11:55:00.423Z,45.37
2023-02-09T11:56:00.445Z,46.58
2023-02-09T11:57:00.393Z,48.08
2023-02-09T11:58:00.394Z,49.77
2023-02-09T11:59:00.389Z,50.81
2023-02-09T12:00:00.387Z,51.34
2023-02-09T12:01:13.341Z,52.31
2023-02-09T12:02:00.376Z,52.95
2023-02-09T12:03:00.448Z,53.34
2023-02-09T12:04:00.374Z,54.02
2023-02-09T12:05:00.484Z,54.31
2023-02-09T12:06:00.354Z,54.72
2023-02-09T12:07:00.347Z,53.42
2023-02-09T12:08:00.345Z,51.10
2023-02-09T12:09:00.342Z,47.60
2023-02-09T12:10:00.368Z,46.38
2023-02-09T12:11:00.326Z,45.39
2023-02-09T12:12:00.333Z,46.02
2023-02-09T12:13:00.326Z,46.75
2023-02-09T12:14:00.310Z,48.23
2023-02-09T12:15:00.318Z,49.17
2023-02-09T12:16:00.329Z,50.28
2023-02-09T12:17:00.305Z,50.74
2023-02-09T12:18:00.283Z,50.98
2023-02-09T12:19:00.285Z,51.43
2023-02-09T12:20:00.273Z,51.89
2023-02-09T12:21:00.315Z,53.33
2023-02-09T12:22:00.254Z,53.27
2023-02-09T12:23:00.243Z,52.25
2023-02-09T12:24:00.240Z,50.01
2023-02-09T12:25:00.828Z,47.45
2023-02-09T12:26:00.217Z,45.74
2023-02-09T12:27:00.207Z,45.31
2023-02-09T12:28:00.229Z,45.72
2023-02-09T12:29:00.197Z,47.41
2023-02-09T12:30:00.192Z,48.33
2023-02-09T12:31:00.236Z,49.51
2023-02-09T12:32:00.302Z,50.82
2023-02-09T12:33:00.157Z,51.73
2023-02-09T12:34:00.181Z,53.24
2023-02-09T12:35:00.134Z,53.67
2023-02-09T12:36:00.141Z,55.21
2023-02-09T12:37:00.113Z,55.97
2023-02-09T12:38:00.122Z,56.00
2023-02-09T12:39:05.699Z,54.06
2023-02-09T12:40:00.196Z,51.43
2023-02-09T12:41:00.093Z,48.66
2023-02-09T12:42:00.095Z,47.31
2023-02-09T12:43:00.046Z,47.66
2023-02-09T12:44:00.047Z,48.30
2023-02-09T12:45:00.035Z,49.31
2023-02-09T12:46:00.092Z,50.34
2023-02-09T12:47:00.037Z,51.85
2023-02-09T12:47:59.999Z,52.11
2023-02-09T12:48:59.984Z,53.04
2023-02-09T12:49:59.966Z,54.07
2023-02-09T12:50:59.959Z,54.93
2023-02-09T12:51:59.959Z,54.93
2023-02-09T12:52:59.933Z,54.79
2023-02-09T12:53:59.923Z,52.55
2023-02-09T12:54:59.945Z,50.10
2023-02-09T12:55:59.902Z,48.18
2023-02-09T12:56:59.907Z,48.16
2023-02-09T12:57:59.880Z,48.71
2023-02-09T12:58:59.874Z,49.43
2023-02-09T12:59:59.860Z,50.46
2023-02-09T13:00:59.981Z,51.01
2023-02-09T13:01:59.875Z,51.65
2023-02-09T13:02:59.844Z,52.10
2023-02-09T13:03:59.850Z,52.75
2023-02-09T13:04:59.791Z,53.32
2023-02-09T13:05:59.787Z,53.63
2023-02-09T13:06:59.780Z,52.83
2023-02-09T13:07:59.760Z,50.84
2023-02-09T13:08:59.749Z,49.43
2023-02-09T13:09:59.735Z,48.73
2023-02-09T13:10:59.720Z,49.38
2023-02-09T13:11:59.707Z,50.21
2023-02-09T13:12:59.703Z,51.15
2023-02-09T13:13:59.766Z,51.62
2023-02-09T13:14:59.671Z,52.46
2023-02-09T13:15:59.718Z,52.91
2023-02-09T13:16:59.718Z,53.49
2023-02-09T13:17:59.637Z,54.27
2023-02-09T13:18:59.636Z,53.61
2023-02-09T13:19:59.652Z,52.48
2023-02-09T13:20:59.618Z,52.01
2023-02-09T13:21:59.582Z,51.50
2023-02-09T13:22:59.575Z,51.79
2023-02-09T13:23:59.563Z,52.53
2023-02-09T13:24:59.535Z,52.98
2023-02-09T13:25:59.558Z,53.08
2023-02-09T13:26:59.503Z,53.62
2023-02-09T13:27:59.503Z,54.77
2023-02-09T13:29:06.030Z,54.99
2023-02-09T13:29:59.472Z,54.13
2023-02-09T13:30:59.457Z,52.91
2023-02-09T13:31:59.489Z,52.15
2023-02-09T13:33:01.282Z,51.64
2023-02-09T13:33:59.413Z,51.81
2023-02-09T13:34:59.400Z,52.19
2023-02-09T13:35:59.385Z,53.02
2023-02-09T13:36:59.373Z,53.02
2023-02-09T13:37:59.350Z,53.56
2023-02-09T13:38:59.342Z,53.95
2023-02-09T13:39:59.857Z,54.02
2023-02-09T13:40:59.316Z,53.92
2023-02-09T13:41:59.371Z,54.37
2023-02-09T13:42:59.282Z,54.47
2023-02-09T13:43:59.277Z,54.94
2023-02-09T13:44:59.251Z,54.94
2023-02-09T13:45:59.317Z,55.29
2023-02-09T13:46:59.230Z,55.61
2023-02-09T13:47:59.259Z,55.87
2023-02-09T13:48:59.274Z,55.87
2023-02-09T13:49:59.191Z,55.96
2023-02-09T13:50:59.167Z,56.15
2023-02-09T13:51:59.177Z,56.24
2023-02-09T13:52:59.134Z,55.96
2023-02-09T13:53:59.165Z,55.87
2023-02-09T13:54:59.105Z,56.05
2023-02-09T13:55:59.091Z,56.05
2023-02-09T13:56:59.074Z,56.05
2023-02-09T13:57:59.077Z,55.96
2023-02-09T13:58:59.065Z,56.03
2023-02-09T13:59:59.031Z,56.05
2023-02-09T14:00:59.054Z,55.83
2023-02-09T14:01:59.007Z,55.83
2023-02-09T14:02:59.049Z,56.22
2023-02-09T14:03:59.074Z,55.83
2023-02-09T14:04:58.957Z,56.03
2023-02-09T14:05:58.940Z,56.31
2023-02-09T14:06:58.930Z,56.79
2023-02-09T14:07:58.916Z,56.38
2023-02-09T14:08:58.905Z,56.48
2023-02-09T14:09:58.881Z,56.76
2023-02-09T14:10:58.861Z,56.67
2023-02-09T14:11:58.881Z,56.57
2023-02-09T14:12:58.824Z,56.57
2023-02-09T14:13:58.814Z,56.95
2023-02-09T14:14:58.795Z,57.04
2023-02-09T14:15:58.782Z,57.04
2023-02-09T14:16:58.793Z,57.04
2023-02-09T14:17:58.743Z,57.02
2023-02-09T14:18:58.731Z,56.83
2023-02-09T14:19:58.758Z,56.63
2023-02-09T14:20:58.704Z,56.92
2023-02-09T14:21:58.688Z,56.92
2023-02-09T14:22:58.686Z,56.92
2023-02-09T14:23:58.651Z,56.83
2023-02-09T14:24:58.652Z,57.18
2023-02-09T14:25:58.619Z,56.70
2023-02-09T14:26:58.603Z,56.80
2023-02-09T14:27:58.682Z,57.18
2023-02-09T14:28:58.566Z,56.89
2023-02-09T14:29:58.557Z,57.28
2023-02-09T14:30:58.692Z,57.28
2023-02-09T14:31:58.539Z,57.46
2023-02-09T14:32:58.530Z,57.37
2023-02-09T14:33:58.497Z,57.37
2023-02-09T14:34:58.472Z,57.28
2023-02-09T14:35:58.452Z,57.34
2023-02-09T14:36:58.436Z,57.15
2023-02-09T14:37:58.423Z,57.72
2023-02-09T14:38:58.438Z,57.72
2023-02-09T14:39:58.394Z,57.34
2023-02-09T14:40:59.940Z,57.53
2023-02-09T14:41:58.361Z,57.34
2023-02-09T14:42:58.351Z,57.62